createdAt,value
2023-05-09T15:17:02.173Z,15.87
2023-05-09T15:19:29.449Z,15.80
2023-05-09T15:21:56.553Z,15.90
2023-05-09T15:24:23.756Z,15.91
2023-05-09T15:26:54.015Z,15.96
2023-05-09T15:29:21.494Z,15.84
2023-05-09T15:31:48.669Z,16.05
2023-05-09T15:34:17.539Z,16.18
2023-05-09T15:36:44.770Z,16.01
2023-05-09T15:39:11.928Z,15.71
2023-05-09T15:41:39.866Z,15.81
2023-05-09T15:44:07.158Z,15.90
2023-05-09T15:46:34.541Z,16.16
2023-05-09T15:49:01.750Z,16.34
2023-05-09T15:51:30.347Z,15.92
2023-05-09T15:53:57.548Z,15.74
2023-05-09T15:56:24.781Z,15.60
2023-05-09T15:58:51.875Z,15.48
2023-05-09T16:01:19.153Z,15.52
2023-05-09T16:03:46.534Z,15.56
2023-05-09T16:06:13.892Z,15.55
2023-05-09T16:08:42.563Z,15.38
2023-05-09T16:11:10.065Z,15.40
2023-05-09T16:13:37.439Z,15.63
2023-05-09T16:16:05.514Z,15.53
2023-05-09T16:18:33.170Z,15.45
2023-05-09T16:21:00.312Z,15.30
2023-05-09T16:23:29.315Z,15.23
2023-05-09T16:25:58.199Z,15.29
2023-05-09T16:28:25.319Z,15.17
2023-05-09T16:30:52.588Z,15.24
2023-05-09T16:33:19.949Z,15.09
2023-05-09T16:35:47.287Z,15.04
2023-05-09T16:38:14.478Z,14.96
2023-05-09T16:40:41.788Z,15.00
2023-05-09T16:43:10.259Z,15.02
2023-05-09T16:45:37.511Z,14.94
2023-05-09T16:48:05.492Z,15.08
2023-05-09T16:50:32.931Z,15.03
2023-05-09T16:53:00.240Z,14.98
2023-05-09T16:55:27.671Z,14.97
2023-05-09T16:57:56.322Z,14.94
2023-05-09T17:00:25.303Z,14.94
2023-05-09T17:02:52.840Z,14.99
2023-05-09T17:05:20.173Z,14.89
2023-05-09T17:07:47.437Z,14.80
2023-05-09T17:10:14.885Z,14.82
2023-05-09T17:12:42.439Z,14.77
2023-05-09T17:15:10.263Z,14.61
2023-05-09T17:17:39.077Z,14.51
2023-05-09T17:20:07.723Z,14.46
2023-05-09T17:22:36.963Z,14.53
2023-05-09T17:25:05.032Z,14.43
2023-05-09T17:27:32.254Z,14.34
2023-05-09T17:29:59.573Z,14.34
2023-05-09T17:32:26.865Z,14.32
2023-05-09T17:34:55.458Z,14.44
2023-05-09T17:37:22.684Z,14.57
2023-05-09T17:39:49.870Z,14.64
2023-05-09T17:42:17.084Z,14.57
2023-05-09T17:44:44.610Z,14.50
2023-05-09T17:47:11.819Z,14.50
2023-05-09T17:49:39.053Z,14.56
2023-05-09T17:52:07.600Z,14.36
2023-05-09T17:54:34.717Z,14.47
2023-05-09T17:57:01.844Z,14.49
2023-05-09T17:59:29.015Z,14.32
2023-05-09T18:01:56.354Z,14.42
2023-05-09T18:04:23.650Z,14.35
2023-05-09T18:06:50.788Z,14.45
2023-05-09T18:09:19.351Z,14.36
2023-05-09T18:11:46.545Z,14.50
2023-05-09T18:14:13.766Z,14.48
2023-05-09T18:16:40.936Z,14.37
2023-05-09T18:19:08.042Z,14.43
2023-05-09T18:21:35.222Z,14.45
2023-05-09T18:24:02.418Z,14.59
2023-05-09T18:26:31.108Z,14.67
2023-05-09T18:28:58.486Z,14.67
2023-05-09T18:31:25.683Z,14.70
2023-05-09T18:33:53.057Z,14.62
2023-05-09T18:36:20.299Z,14.54
2023-05-09T18:38:47.671Z,14.35
2023-05-09T18:41:14.763Z,14.47
2023-05-09T18:43:43.664Z,14.49
2023-05-09T18:46:10.917Z,14.49
2023-05-09T18:48:37.972Z,14.62
2023-05-09T18:51:05.159Z,14.34
2023-05-09T18:53:32.227Z,14.46
2023-05-09T18:55:59.286Z,14.24
2023-05-09T18:58:26.510Z,14.54
2023-05-09T19:00:55.168Z,14.36
2023-05-09T19:03:22.426Z,14.39
2023-05-09T19:05:49.623Z,14.16
2023-05-09T19:08:16.934Z,14.14
2023-05-09T19:10:43.962Z,14.31
2023-05-09T19:13:12.407Z,14.35
2023-05-09T19:15:41.303Z,14.61
2023-05-09T19:18:10.026Z,14.46
2023-05-09T19:20:46.413Z,14.44
2023-05-09T19:23:13.475Z,14.49
2023-05-09T19:25:40.768Z,14.38
2023-05-09T19:28:07.981Z,14.44
2023-05-09T19:30:35.159Z,14.31
2023-05-09T19:33:02.368Z,14.32
2023-05-09T19:35:31.092Z,14.36
2023-05-09T19:37:58.372Z,14.18
2023-05-09T19:40:25.712Z,14.24
2023-05-09T19:42:52.896Z,14.26
2023-05-09T19:45:20.314Z,14.15
2023-05-09T19:47:47.553Z,14.19
2023-05-09T19:50:14.966Z,14.10
2023-05-09T19:52:43.639Z,14.23
2023-05-09T19:55:10.942Z,14.24
2023-05-09T19:57:38.008Z,14.19
2023-05-09T20:00:06.054Z,14.33
2023-05-09T20:02:33.333Z,14.19
2023-05-09T20:05:00.570Z,14.09
2023-05-09T20:07:28.157Z,14.02
2023-05-09T20:09:56.799Z,13.93
2023-05-09T20:12:23.976Z,14.02
2023-05-09T20:14:51.063Z,14.05
2023-05-09T20:17:18.492Z,13.90
2023-05-09T20:19:45.672Z,13.93
2023-05-09T20:22:12.851Z,13.74
2023-05-09T20:24:40.820Z,13.97
2023-05-09T20:27:09.480Z,13.98
2023-05-09T20:29:36.685Z,14.15
2023-05-09T20:32:04.020Z,14.16
